Airfield :
LOGIN :

Register | Disclaimer

   EN    FR    IT 

 










Legend :    VFR   Marginal VFR   IFR   Intensive IFR   Very Intensive IFR
Visi :
Ceiling :
>= 8 km
>= 3000ft
5 to 8 km
1000 to 3000 ft
1500m to 5 km
500 to 1000 ft
800 to 1500m
200 to 500 ft
< 800m
< 200 ft
Symbols :   Thunderstorms  Fog  Heavy snow  Heavy precipitations  Wind > 20 kt
SIGMETs :     Misc.  Thunderstorms  Icing  Turbulence  Mountain Waves  Volcanic Ashes






- Airport Elevation : 268 ft
- IATA code : BFS


EGAA - Belfast Aldergrove

CURRENT METAR :
  • 250520Z AUTO 13006KT 9999 FEW021 10/09 Q1016

EXPIRED METARs :
  • 250450Z AUTO 14007KT 9999 FEW025 BKN035 10/09 Q1016
  • 250420Z AUTO 15007KT 9999 FEW013 BKN022 10/10 Q1016
  • 250350Z AUTO 15006KT 130V190 9999 BKN006 BKN012 10/10 Q1016
  • 250320Z AUTO 15006KT 130V190 4300 BR BKN005 OVC011 11/10 Q1016 REDZ
  • 250250Z AUTO 15006KT 3400 DZ BKN006 OVC011 11/10 Q1016 REDZ
  • 250220Z AUTO 15005KT 130V190 9999 BKN007 OVC010 11/10 Q1017
  • 250150Z AUTO 15005KT 9999 SCT009 SCT032 11/10 Q1017
  • 250120Z AUTO 15007KT 9999 FEW022 OVC039 11/10 Q1017
  • 250050Z AUTO 14006KT 110V180 9999 OVC038 11/10 Q1017

TAF AMD TAF EGAA
Valid from the 25 at 02:00 until the 26 at 00:00 UTC


250253Z 2502/2524 14006KT 9999 FEW012 BKN020
TEMPO 2502/2505 6000 -RADZ BKN010
PROB30
TEMPO 2502/2504 3000 DZ BKN004
PROB40
TEMPO 2505/2509 BKN012
PROB30
TEMPO 2522/2524 BKN012



MET'MAP, your aeronautical weather chart ! - Copyright ORBIFLY December 2007 - Disclaimer

ORBIFLY MET'MAP TEAM :

Programming & Development : Alexandra Zaïnal
Original concept : Baudouin d'Aumeries
Technical & hardware support : Manuel Goepfert
Assistance : Marc-Olivier Méhu




SOURCES & CREDITS :

   NOAA